Time;durP1;ratioP1;P1;durP2;ratioP2;P2;SDS_P1;SDS_P2;PMS_P1;PMS_P2;Temp;Humidity;BMP_temperature;BMP_pressure;BME280_temperature;BME280_humidity;BME280_pressure;Samples;Min_cycle;Max_cycle;Signal;HPM_P1;HPM_P2
2023/09/15 00:00:45;;;;;;;7.40;4.03;;;12.10;99.90;;;;;;4172393;28;20223;-76
2023/09/15 00:02:47;;;;;;;7.30;3.93;;;12.10;99.90;;;;;;4175364;28;20722;-76
2023/09/15 00:04:49;;;;;;;8.30;3.63;;;12.00;99.90;;;;;;4172875;28;20301;-76
2023/09/15 00:06:51;;;;;;;9.37;4.33;;;12.00;99.90;;;;;;4172915;28;20238;-76
2023/09/15 00:08:53;;;;;;;6.57;3.87;;;12.00;99.90;;;;;;4175371;28;20252;-76
2023/09/15 00:10:54;;;;;;;7.87;3.97;;;12.00;99.90;;;;;;4174583;28;20584;-76
2023/09/15 00:12:56;;;;;;;7.03;3.90;;;12.00;99.90;;;;;;4174413;28;20263;-76
2023/09/15 00:14:58;;;;;;;5.47;3.60;;;11.90;99.90;;;;;;4172533;28;20223;-76
2023/09/15 00:17:03;;;;;;;7.40;4.33;;;11.90;99.90;;;;;;4173661;28;20298;-76
2023/09/15 00:19:05;;;;;;;5.93;3.70;;;11.90;99.90;;;;;;4171820;28;20214;-77
2023/09/15 00:21:09;;;;;;;6.40;3.43;;;11.90;99.90;;;;;;4171088;28;20828;-76
2023/09/15 00:23:11;;;;;;;6.03;3.70;;;11.90;99.90;;;;;;4170270;28;20706;-76
2023/09/15 00:25:12;;;;;;;5.57;3.37;;;11.90;99.90;;;;;;4172954;28;20244;-77
2023/09/15 00:27:14;;;;;;;6.73;4.00;;;11.90;99.90;;;;;;4174033;28;20210;-76
2023/09/15 00:29:16;;;;;;;6.90;3.60;;;11.80;99.90;;;;;;4172368;28;20206;-76
2023/09/15 00:31:19;;;;;;;6.40;3.90;;;11.80;99.90;;;;;;4174058;28;20255;-76
2023/09/15 00:33:21;;;;;;;5.90;3.57;;;11.80;99.90;;;;;;4174684;28;20770;-76
2023/09/15 00:35:26;;;;;;;6.33;3.87;;;11.80;99.90;;;;;;4173060;28;20647;-76
2023/09/15 00:37:28;;;;;;;5.93;3.83;;;11.80;99.90;;;;;;4173503;28;20210;-76
2023/09/15 00:39:30;;;;;;;6.07;3.97;;;11.70;99.90;;;;;;4177264;28;20211;-76
2023/09/15 00:41:32;;;;;;;6.90;3.70;;;11.70;99.90;;;;;;4173691;28;20210;-77
2023/09/15 00:43:34;;;;;;;6.70;4.00;;;11.70;99.90;;;;;;4170754;28;20635;-76
2023/09/15 00:45:36;;;;;;;7.20;4.23;;;11.60;99.90;;;;;;4172317;28;20206;-76
2023/09/15 00:47:39;;;;;;;9.87;4.40;;;11.70;99.90;;;;;;4170616;28;20288;-76
2023/09/15 00:49:42;;;;;;;8.90;5.00;;;11.70;99.90;;;;;;4172441;28;20218;-76
2023/09/15 00:51:44;;;;;;;8.97;4.77;;;11.70;99.90;;;;;;4172629;28;20234;-76
2023/09/15 00:53:46;;;;;;;8.00;4.53;;;11.70;99.90;;;;;;4171657;28;20225;-77
2023/09/15 00:55:51;;;;;;;8.73;4.47;;;11.60;99.90;;;;;;4173072;28;20222;-76
2023/09/15 00:57:54;;;;;;;9.00;4.60;;;11.60;99.90;;;;;;4173274;28;20203;-76
2023/09/15 00:59:56;;;;;;;7.53;4.47;;;11.60;99.90;;;;;;4170238;28;20207;-77
2023/09/15 01:01:59;;;;;;;7.23;3.80;;;11.50;99.90;;;;;;4171259;28;20621;-76
2023/09/15 01:04:02;;;;;;;7.67;4.10;;;11.50;99.90;;;;;;4173826;28;20613;-76
2023/09/15 01:06:06;;;;;;;9.90;4.57;;;11.50;99.90;;;;;;4173946;28;20582;-76
2023/09/15 01:08:08;;;;;;;6.87;3.97;;;11.50;99.90;;;;;;4171803;28;20208;-76
2023/09/15 01:10:09;;;;;;;7.20;4.23;;;11.50;99.90;;;;;;4172794;28;20261;-76
2023/09/15 01:12:11;;;;;;;6.83;4.03;;;11.40;99.90;;;;;;4175030;28;20201;-76
2023/09/15 01:14:13;;;;;;;6.87;4.30;;;11.50;99.90;;;;;;4175215;28;20277;-77
2023/09/15 01:16:23;;;;;;;8.00;4.33;;;11.40;99.90;;;;;;4171064;28;20238;-76
2023/09/15 01:18:30;;;;;;;7.70;4.47;;;11.40;99.90;;;;;;4170588;28;20217;-76
2023/09/15 01:21:08;;;;;;;7.97;4.30;;;11.40;99.90;;;;;;4173737;28;20195;-76
2023/09/15 01:23:33;;;;;;;9.10;4.20;;;11.40;99.90;;;;;;4156463;28;20213;-77
2023/09/15 01:26:07;;;;;;;8.33;4.57;;;11.40;99.90;;;;;;4170885;28;20725;-77
2023/09/15 01:28:22;;;;;;;7.53;4.57;;;11.40;99.90;;;;;;4174892;28;20222;-76
2023/09/15 01:30:26;;;;;;;7.13;4.20;;;11.40;99.90;;;;;;4170957;28;20237;-76
2023/09/15 01:32:31;;;;;;;7.97;4.20;;;11.40;99.90;;;;;;4174771;28;20210;-76
2023/09/15 01:34:33;;;;;;;7.70;4.70;;;11.30;99.90;;;;;;4169437;28;20241;-77
2023/09/15 01:36:35;;;;;;;6.70;4.80;;;11.40;99.90;;;;;;4170082;28;20291;-77
2023/09/15 01:38:37;;;;;;;5.93;4.10;;;11.40;99.90;;;;;;4172163;28;20738;-76
2023/09/15 01:40:39;;;;;;;6.13;3.80;;;11.30;99.90;;;;;;4174650;28;20205;-77
2023/09/15 01:42:43;;;;;;;6.37;4.43;;;11.30;99.90;;;;;;4169696;28;20623;-77
2023/09/15 01:44:44;;;;;;;7.47;4.30;;;11.30;99.90;;;;;;4170426;28;20237;-76
2023/09/15 01:46:47;;;;;;;8.67;4.20;;;11.30;99.90;;;;;;4171900;28;20251;-77
2023/09/15 01:48:49;;;;;;;5.13;4.00;;;11.30;99.90;;;;;;4172398;28;20255;-77
2023/09/15 01:50:52;;;;;;;10.37;5.17;;;11.20;99.90;;;;;;4169874;28;20202;-76
2023/09/15 01:52:54;;;;;;;9.17;5.23;;;11.20;99.90;;;;;;4167715;28;21794;-76
2023/09/15 01:54:58;;;;;;;7.10;4.40;;;11.20;99.90;;;;;;4171437;28;20214;-77
2023/09/15 01:57:00;;;;;;;6.43;4.30;;;11.20;99.90;;;;;;4169115;28;20273;-77
2023/09/15 01:59:02;;;;;;;6.03;4.13;;;11.20;99.90;;;;;;4170644;28;20214;-76
2023/09/15 02:01:04;;;;;;;5.93;4.27;;;11.20;99.90;;;;;;4172185;28;20214;-76
2023/09/15 02:03:07;;;;;;;6.70;4.50;;;11.20;99.90;;;;;;4170546;28;20210;-77
2023/09/15 02:05:11;;;;;;;6.63;4.70;;;11.10;99.90;;;;;;4170118;28;20747;-77
2023/09/15 02:07:13;;;;;;;6.73;4.50;;;11.10;99.90;;;;;;4172574;28;20275;-76
2023/09/15 02:09:16;;;;;;;6.30;4.20;;;11.10;99.90;;;;;;4168816;28;20210;-77
2023/09/15 02:11:18;;;;;;;7.47;4.60;;;11.10;99.90;;;;;;4168447;28;20226;-76
2023/09/15 02:13:20;;;;;;;9.20;4.70;;;11.10;99.90;;;;;;4169788;28;20615;-76
2023/09/15 02:15:22;;;;;;;7.53;4.60;;;11.10;99.90;;;;;;4173503;28;20210;-77
2023/09/15 02:17:24;;;;;;;5.63;4.07;;;11.00;99.90;;;;;;4171760;28;20559;-76
2023/09/15 02:19:28;;;;;;;8.47;4.43;;;11.00;99.90;;;;;;4173605;28;20210;-76
2023/09/15 02:21:30;;;;;;;6.17;4.53;;;11.00;99.90;;;;;;4171872;28;20235;-76
2023/09/15 02:23:32;;;;;;;7.53;4.53;;;11.00;99.90;;;;;;4171083;28;20779;-76
2023/09/15 02:25:35;;;;;;;8.00;4.70;;;11.00;99.90;;;;;;4171202;28;20204;-77
2023/09/15 02:27:37;;;;;;;8.27;4.73;;;11.00;99.90;;;;;;4170975;28;20747;-76
2023/09/15 02:29:39;;;;;;;7.67;4.53;;;10.90;99.90;;;;;;4168062;28;20213;-76
2023/09/15 02:31:41;;;;;;;6.77;4.73;;;10.90;99.90;;;;;;4170316;28;20229;-77
2023/09/15 02:33:43;;;;;;;8.03;4.67;;;10.90;99.90;;;;;;4170408;28;20313;-77
2023/09/15 02:35:47;;;;;;;7.13;4.23;;;10.90;99.90;;;;;;4169058;28;20600;-77
2023/09/15 02:37:49;;;;;;;6.20;4.43;;;11.10;99.90;;;;;;4168878;28;20214;-76
2023/09/15 02:39:51;;;;;;;5.90;4.13;;;10.80;99.90;;;;;;4172993;28;20201;-77
2023/09/15 02:41:52;;;;;;;7.77;4.37;;;10.80;99.90;;;;;;4172847;28;20289;-76
2023/09/15 02:43:54;;;;;;;6.77;4.47;;;10.80;99.90;;;;;;4172032;28;20237;-77
2023/09/15 02:46:03;;;;;;;7.17;4.53;;;10.80;99.90;;;;;;4170824;28;20270;-77
2023/09/15 02:48:06;;;;;;;7.23;4.63;;;10.80;99.90;;;;;;4169468;28;20264;-76
2023/09/15 02:50:09;;;;;;;8.90;4.90;;;10.70;99.90;;;;;;4170111;28;20218;-76
2023/09/15 02:52:11;;;;;;;10.27;5.03;;;10.70;99.90;;;;;;4172351;28;20202;-76
2023/09/15 02:54:13;;;;;;;9.97;6.07;;;10.70;99.90;;;;;;4173024;28;20233;-77
2023/09/15 02:56:15;;;;;;;7.80;5.10;;;10.80;99.90;;;;;;4172538;28;20229;-76
2023/09/15 02:58:17;;;;;;;10.03;4.87;;;10.70;99.90;;;;;;4172818;28;20205;-77
2023/09/15 03:00:19;;;;;;;7.00;4.30;;;10.80;99.90;;;;;;4174026;28;20795;-77
2023/09/15 03:02:22;;;;;;;8.37;4.90;;;10.60;99.90;;;;;;4173070;28;20558;-77
2023/09/15 03:04:23;;;;;;;6.60;4.80;;;10.70;99.90;;;;;;4172481;28;20430;-77
2023/09/15 03:06:25;;;;;;;9.10;4.60;;;10.60;99.90;;;;;;4169438;28;20224;-77
2023/09/15 03:08:28;;;;;;;6.23;4.40;;;10.60;99.90;;;;;;4169338;28;20209;-77
2023/09/15 03:10:30;;;;;;;8.93;4.90;;;10.60;99.90;;;;;;4175451;28;20266;-77
2023/09/15 03:12:31;;;;;;;8.50;4.73;;;10.60;99.90;;;;;;4176881;28;20200;-76
2023/09/15 03:14:33;;;;;;;7.67;4.70;;;10.60;99.90;;;;;;4176418;28;20224;-77
2023/09/15 03:16:35;;;;;;;7.13;4.37;;;10.60;99.90;;;;;;4175606;28;20261;-77
2023/09/15 03:18:37;;;;;;;7.97;4.60;;;10.50;99.90;;;;;;4178580;28;20221;-76
2023/09/15 03:20:38;;;;;;;8.30;5.00;;;10.50;99.90;;;;;;4174112;28;20248;-77
2023/09/15 03:22:40;;;;;;;5.77;4.23;;;10.50;99.90;;;;;;4172869;28;20680;-77
2023/09/15 03:24:43;;;;;;;7.40;4.70;;;10.50;99.90;;;;;;4181882;28;20336;-76
2023/09/15 03:26:46;;;;;;;9.13;4.87;;;10.40;99.90;;;;;;4174306;28;20243;-76
2023/09/15 03:28:48;;;;;;;7.50;4.90;;;10.50;99.90;;;;;;4176783;28;20291;-76
2023/09/15 03:30:50;;;;;;;6.47;4.20;;;10.40;99.90;;;;;;4176002;28;20245;-77
2023/09/15 03:32:52;;;;;;;9.97;5.10;;;10.40;99.90;;;;;;4174865;28;20277;-77
2023/09/15 03:34:54;;;;;;;9.83;5.43;;;10.40;99.90;;;;;;4173838;28;20267;-77
2023/09/15 03:36:56;;;;;;;10.00;5.40;;;10.40;99.90;;;;;;4174090;28;20667;-76
2023/09/15 03:38:58;;;;;;;7.97;5.00;;;10.40;99.90;;;;;;4178021;28;20218;-77
2023/09/15 03:41:00;;;;;;;9.10;5.43;;;10.40;99.90;;;;;;4176323;28;20234;-76
2023/09/15 03:43:02;;;;;;;8.63;4.63;;;10.40;99.90;;;;;;4176941;28;20668;-76
2023/09/15 03:45:05;;;;;;;7.57;5.07;;;10.40;99.90;;;;;;4178930;28;20205;-76
2023/09/15 03:47:08;;;;;;;8.57;4.83;;;10.40;99.90;;;;;;4176136;28;20228;-76
2023/09/15 03:49:10;;;;;;;5.80;4.23;;;10.40;99.90;;;;;;4175560;28;20205;-76
2023/09/15 03:51:13;;;;;;;5.80;3.90;;;10.40;99.90;;;;;;4175090;28;20708;-76
2023/09/15 03:53:15;;;;;;;9.20;4.70;;;10.40;99.90;;;;;;4177514;28;20226;-76
2023/09/15 03:55:18;;;;;;;9.03;5.30;;;10.40;99.90;;;;;;4176116;28;20275;-76
2023/09/15 03:57:22;;;;;;;7.83;4.97;;;10.40;99.90;;;;;;4176117;28;20746;-76
2023/09/15 03:59:24;;;;;;;6.90;4.77;;;10.40;99.90;;;;;;4175594;28;20210;-76
2023/09/15 04:01:26;;;;;;;8.40;5.17;;;10.40;99.90;;;;;;4176667;28;20258;-76
2023/09/15 04:03:28;;;;;;;8.47;4.87;;;10.40;99.90;;;;;;4175375;28;20237;-76
2023/09/15 04:05:30;;;;;;;10.03;5.00;;;10.40;99.90;;;;;;4176290;28;20266;-76
2023/09/15 04:07:32;;;;;;;10.93;5.77;;;10.40;99.90;;;;;;4176076;28;20205;-76
2023/09/15 04:09:35;;;;;;;8.90;4.80;;;10.40;99.90;;;;;;4175378;28;20214;-76
2023/09/15 04:11:37;;;;;;;7.83;5.00;;;10.40;99.90;;;;;;4175621;28;20223;-76
2023/09/15 04:13:40;;;;;;;8.47;5.07;;;10.40;99.90;;;;;;4158201;28;20277;-77
2023/09/15 04:15:42;;;;;;;6.40;4.40;;;10.40;99.90;;;;;;4179327;28;20217;-77
2023/09/15 04:17:45;;;;;;;8.43;5.47;;;10.40;99.90;;;;;;4174353;28;20236;-76
2023/09/15 04:19:46;;;;;;;9.37;5.37;;;10.30;99.90;;;;;;4176666;28;20295;-77
2023/09/15 04:21:48;;;;;;;10.67;5.13;;;10.40;99.90;;;;;;4175304;28;20588;-77
2023/09/15 04:23:50;;;;;;;9.23;4.97;;;10.30;99.90;;;;;;4171455;28;20275;-77
2023/09/15 04:25:52;;;;;;;9.97;5.73;;;10.30;99.90;;;;;;4174721;28;20238;-77
2023/09/15 04:27:54;;;;;;;12.20;5.77;;;10.30;99.90;;;;;;4174027;28;20262;-76
2023/09/15 04:29:57;;;;;;;9.70;4.90;;;10.30;99.90;;;;;;4174964;28;20204;-76
2023/09/15 04:31:59;;;;;;;9.20;5.40;;;10.30;99.90;;;;;;4167449;28;20603;-76
2023/09/15 04:34:01;;;;;;;7.60;4.97;;;10.20;99.90;;;;;;4170592;28;20236;-76
2023/09/15 04:36:04;;;;;;;6.90;5.10;;;10.30;99.90;;;;;;4174031;28;20266;-76
2023/09/15 04:38:06;;;;;;;6.13;4.60;;;10.20;99.90;;;;;;4173837;28;20304;-76
2023/09/15 04:40:09;;;;;;;7.17;4.60;;;10.20;99.90;;;;;;4173092;28;20742;-77
2023/09/15 04:42:12;;;;;;;11.30;6.53;;;10.20;99.90;;;;;;4172447;28;20219;-77
2023/09/15 04:44:13;;;;;;;9.40;5.23;;;10.20;99.90;;;;;;4171080;28;20255;-77
2023/09/15 04:46:18;;;;;;;12.33;5.30;;;10.30;99.90;;;;;;4174279;28;20296;-76
2023/09/15 04:48:20;;;;;;;11.27;5.53;;;10.20;99.90;;;;;;4174985;28;20213;-76
2023/09/15 04:50:22;;;;;;;8.57;5.73;;;10.20;99.90;;;;;;4172453;28;20209;-76
2023/09/15 04:52:23;;;;;;;8.97;5.40;;;10.20;99.90;;;;;;4173928;28;20241;-76
2023/09/15 04:54:26;;;;;;;9.03;5.57;;;10.20;99.90;;;;;;4174163;28;20217;-77
2023/09/15 04:56:27;;;;;;;9.03;5.60;;;10.10;99.90;;;;;;4173950;28;20749;-77
2023/09/15 04:58:29;;;;;;;8.50;5.40;;;10.20;99.90;;;;;;4175906;28;20611;-77
2023/09/15 05:00:34;;;;;;;10.67;5.77;;;10.20;99.90;;;;;;4169606;28;20720;-77
2023/09/15 05:02:36;;;;;;;8.57;5.10;;;10.20;99.90;;;;;;4167784;28;20220;-77
2023/09/15 05:04:38;;;;;;;7.37;5.10;;;10.20;99.90;;;;;;4171612;28;20300;-77
2023/09/15 05:06:40;;;;;;;8.93;5.47;;;10.20;99.90;;;;;;4177209;28;20258;-77
2023/09/15 05:08:44;;;;;;;13.83;7.63;;;10.10;99.90;;;;;;4175705;28;20206;-77
2023/09/15 05:10:47;;;;;;;9.77;6.47;;;10.20;99.90;;;;;;4173731;28;20202;-77
2023/09/15 05:12:49;;;;;;;10.70;6.90;;;10.10;99.90;;;;;;4172254;28;20690;-77
2023/09/15 05:14:51;;;;;;;10.27;6.60;;;10.20;99.90;;;;;;4174327;28;20355;-77
2023/09/15 05:16:54;;;;;;;11.33;6.13;;;10.10;99.90;;;;;;4173633;28;20234;-77
2023/09/15 05:18:57;;;;;;;12.23;6.27;;;10.20;99.90;;;;;;4172909;28;20215;-77
2023/09/15 05:20:59;;;;;;;11.93;5.93;;;10.20;99.90;;;;;;4172839;28;20205;-77
2023/09/15 05:23:01;;;;;;;10.73;5.57;;;10.20;99.90;;;;;;4169561;28;20206;-77
2023/09/15 05:25:04;;;;;;;10.07;5.97;;;10.20;99.90;;;;;;4193969;22;20241;-78
2023/09/15 05:27:06;;;;;;;11.50;6.00;;;10.20;99.90;;;;;;4173992;28;20210;-78
2023/09/15 05:29:08;;;;;;;8.87;5.47;;;10.20;99.90;;;;;;4170565;28;20339;-78
2023/09/15 05:31:12;;;;;;;9.50;6.00;;;10.10;99.90;;;;;;4175287;28;20205;-78
2023/09/15 05:33:15;;;;;;;9.67;5.50;;;10.20;99.90;;;;;;4176378;28;20573;-78
2023/09/15 05:35:18;;;;;;;8.80;5.40;;;10.20;99.90;;;;;;4167148;28;20289;-78
2023/09/15 05:37:20;;;;;;;8.50;5.43;;;10.20;99.90;;;;;;4169319;28;20722;-78
2023/09/15 05:39:21;;;;;;;12.97;6.10;;;10.20;99.90;;;;;;4168834;28;20213;-78
2023/09/15 05:41:23;;;;;;;9.43;5.40;;;10.20;99.90;;;;;;4167124;28;20196;-78
2023/09/15 05:43:24;;;;;;;12.30;6.77;;;10.20;99.90;;;;;;4167969;28;20216;-78
2023/09/15 05:45:26;;;;;;;11.30;6.80;;;10.20;99.90;;;;;;4163707;28;20211;-78
2023/09/15 05:47:28;;;;;;;13.37;7.13;;;10.30;99.90;;;;;;4173253;28;20254;-78
2023/09/15 05:49:30;;;;;;;15.40;7.33;;;10.30;99.90;;;;;;4169093;28;20207;-78
2023/09/15 05:51:34;;;;;;;9.93;6.50;;;10.30;99.90;;;;;;4168999;28;20676;-76
2023/09/15 05:53:36;;;;;;;11.60;6.47;;;10.30;99.90;;;;;;4165260;28;20223;-77
2023/09/15 05:55:37;;;;;;;9.73;6.27;;;10.30;99.90;;;;;;4168044;28;20428;-78
2023/09/15 05:57:41;;;;;;;12.93;6.87;;;10.40;99.90;;;;;;4170549;28;20225;-78
2023/09/15 05:59:42;;;;;;;13.40;7.30;;;10.40;99.90;;;;;;4172008;28;20734;-77
2023/09/15 06:01:47;;;;;;;13.13;6.90;;;10.40;99.90;;;;;;4166311;28;20201;-77
2023/09/15 06:03:50;;;;;;;11.80;6.97;;;10.40;99.90;;;;;;4169128;28;20253;-77
2023/09/15 06:05:52;;;;;;;10.70;6.47;;;10.50;99.90;;;;;;4168185;28;20215;-77
2023/09/15 06:07:55;;;;;;;11.17;7.03;;;10.50;99.90;;;;;;4170723;28;20814;-78
2023/09/15 06:09:57;;;;;;;9.17;6.10;;;10.50;99.90;;;;;;4168944;28;20217;-77
2023/09/15 06:11:59;;;;;;;9.63;5.97;;;10.60;99.90;;;;;;4167991;28;20246;-77
2023/09/15 06:14:01;;;;;;;11.57;7.17;;;10.60;99.90;;;;;;4168765;28;20235;-77
2023/09/15 06:16:04;;;;;;;11.37;6.97;;;10.60;99.90;;;;;;4167928;28;20745;-77
2023/09/15 06:18:06;;;;;;;11.20;6.97;;;10.60;99.90;;;;;;4166615;28;20263;-78
2023/09/15 06:20:08;;;;;;;12.20;7.70;;;10.60;99.90;;;;;;4169201;28;20210;-78
2023/09/15 06:22:10;;;;;;;11.47;6.97;;;10.70;99.90;;;;;;4167190;28;20672;-77
2023/09/15 06:24:14;;;;;;;12.90;7.90;;;10.70;99.90;;;;;;4166041;28;20240;-77
2023/09/15 06:26:17;;;;;;;10.93;6.83;;;10.80;99.90;;;;;;4168703;28;20253;-77
2023/09/15 06:28:19;;;;;;;13.97;7.27;;;10.80;99.90;;;;;;4170886;28;20205;-77
2023/09/15 06:30:21;;;;;;;14.03;7.63;;;10.90;99.90;;;;;;4168737;28;20240;-77
2023/09/15 06:32:23;;;;;;;13.47;7.30;;;10.90;99.90;;;;;;4170350;28;20297;-78
2023/09/15 06:34:25;;;;;;;13.63;7.07;;;10.90;99.90;;;;;;4169711;28;20275;-77
2023/09/15 06:36:27;;;;;;;10.13;6.90;;;11.00;99.90;;;;;;4164823;28;20214;-78
2023/09/15 06:38:31;;;;;;;12.20;7.33;;;11.00;99.90;;;;;;4163938;28;20225;-79
2023/09/15 06:40:34;;;;;;;14.40;7.73;;;11.10;99.90;;;;;;4167871;28;20628;-78
2023/09/15 06:42:36;;;;;;;11.07;7.10;;;11.10;99.90;;;;;;4168653;28;20305;-78
2023/09/15 06:44:38;;;;;;;11.47;6.40;;;11.20;99.90;;;;;;4167060;28;20304;-78
2023/09/15 06:46:40;;;;;;;12.27;7.17;;;11.20;99.90;;;;;;4166471;28;20275;-79
2023/09/15 06:48:42;;;;;;;12.77;6.90;;;11.20;99.90;;;;;;4166918;28;20214;-78
2023/09/15 06:50:44;;;;;;;11.87;7.33;;;11.30;99.90;;;;;;4167315;28;20248;-78
2023/09/15 06:52:46;;;;;;;11.60;6.63;;;11.30;99.90;;;;;;4169223;28;20737;-78
2023/09/15 06:54:48;;;;;;;11.20;6.30;;;11.30;99.90;;;;;;4162146;28;20225;-78
2023/09/15 06:56:52;;;;;;;9.67;5.47;;;11.40;99.90;;;;;;4167759;28;20808;-78
2023/09/15 06:58:54;;;;;;;10.50;6.47;;;11.40;99.90;;;;;;4166523;28;20681;-78
2023/09/15 07:00:56;;;;;;;10.37;6.00;;;11.50;99.90;;;;;;4167706;28;20261;-78
2023/09/15 07:02:58;;;;;;;13.07;6.33;;;11.50;99.90;;;;;;4167605;28;20210;-78
2023/09/15 07:05:00;;;;;;;9.30;6.07;;;11.60;99.90;;;;;;4169161;28;20709;-78
2023/09/15 07:07:02;;;;;;;11.10;5.97;;;11.60;99.90;;;;;;4169413;28;20251;-78
2023/09/15 07:09:04;;;;;;;10.73;5.90;;;11.60;99.90;;;;;;4171568;28;20206;-79
2023/09/15 07:11:06;;;;;;;10.63;6.33;;;11.70;99.90;;;;;;4165710;28;20249;-78
2023/09/15 07:13:09;;;;;;;10.27;5.27;;;11.70;99.90;;;;;;4182092;28;20203;-78
2023/09/15 07:15:13;;;;;;;9.87;5.53;;;11.80;99.90;;;;;;4179351;28;20243;-79
2023/09/15 07:17:16;;;;;;;8.80;5.30;;;11.80;99.90;;;;;;4174894;28;20206;-78
2023/09/15 07:19:18;;;;;;;9.23;5.40;;;11.90;99.90;;;;;;4174851;28;20214;-78
2023/09/15 07:21:20;;;;;;;8.53;5.13;;;11.90;99.90;;;;;;4177459;28;20219;-78
2023/09/15 07:23:22;;;;;;;11.87;5.47;;;11.90;99.90;;;;;;4177127;28;20206;-78
2023/09/15 07:25:24;;;;;;;12.43;5.50;;;12.00;99.90;;;;;;4174493;28;20218;-78
2023/09/15 07:27:26;;;;;;;11.00;5.20;;;12.10;99.90;;;;;;4173392;28;20237;-78
2023/09/15 07:29:30;;;;;;;9.37;5.00;;;12.10;99.90;;;;;;4174429;28;20206;-78
2023/09/15 07:31:35;;;;;;;10.83;5.17;;;12.20;99.90;;;;;;4171891;28;20229;-78
2023/09/15 07:33:39;;;;;;;7.90;5.33;;;12.30;99.90;;;;;;4174169;28;20234;-78
2023/09/15 07:35:41;;;;;;;12.23;5.43;;;12.30;99.90;;;;;;4172851;28;20199;-78
2023/09/15 07:37:42;;;;;;;9.53;5.13;;;12.40;99.90;;;;;;4169649;28;20226;-77
2023/09/15 07:39:45;;;;;;;7.30;4.97;;;12.40;99.90;;;;;;4166968;28;20203;-78
2023/09/15 07:41:46;;;;;;;8.40;4.87;;;12.40;99.90;;;;;;4171268;28;20211;-78
2023/09/15 07:43:48;;;;;;;8.30;4.97;;;12.50;99.90;;;;;;4168103;28;20211;-78
2023/09/15 07:45:52;;;;;;;8.10;4.77;;;12.50;99.90;;;;;;4168840;28;20213;-78
2023/09/15 07:47:54;;;;;;;8.70;4.77;;;12.60;99.90;;;;;;4169830;28;20214;-78
2023/09/15 07:49:57;;;;;;;6.30;4.83;;;12.70;99.90;;;;;;4165087;28;20216;-78
2023/09/15 07:51:59;;;;;;;8.33;5.10;;;12.70;99.90;;;;;;4164560;28;20662;-78
2023/09/15 07:54:01;;;;;;;9.73;4.90;;;12.80;99.90;;;;;;4170778;28;20783;-78
2023/09/15 07:56:03;;;;;;;12.13;5.10;;;13.00;99.90;;;;;;4170055;28;20208;-78
2023/09/15 07:58:05;;;;;;;8.17;4.90;;;12.90;99.90;;;;;;4167544;28;20229;-79
2023/09/15 08:00:10;;;;;;;8.07;5.13;;;13.00;99.90;;;;;;4169424;28;20612;-78
2023/09/15 08:02:14;;;;;;;12.23;4.80;;;13.10;99.90;;;;;;4168981;28;20218;-78
2023/09/15 08:04:16;;;;;;;9.07;4.77;;;13.20;99.90;;;;;;4167441;28;20760;-79
2023/09/15 08:06:17;;;;;;;8.60;5.00;;;13.30;99.90;;;;;;4166427;28;20211;-78
2023/09/15 08:08:19;;;;;;;7.20;4.50;;;13.30;99.90;;;;;;4169324;28;20248;-79
2023/09/15 08:10:22;;;;;;;9.00;5.47;;;13.40;99.90;;;;;;4170175;28;20211;-78
2023/09/15 08:12:24;;;;;;;9.23;5.00;;;13.40;99.90;;;;;;4172675;28;20269;-79
2023/09/15 08:14:26;;;;;;;7.90;4.80;;;13.50;99.90;;;;;;4172424;28;20222;-79
2023/09/15 08:16:28;;;;;;;6.70;4.50;;;13.50;99.90;;;;;;4173254;28;20215;-78
2023/09/15 08:18:31;;;;;;;9.33;4.53;;;13.60;99.90;;;;;;4168681;28;20250;-77
2023/09/15 08:20:33;;;;;;;7.87;4.80;;;13.70;99.90;;;;;;4169741;28;20754;-77
2023/09/15 08:22:38;;;;;;;8.60;4.53;;;13.80;99.90;;;;;;4167408;28;20211;-77
2023/09/15 08:24:40;;;;;;;7.77;4.77;;;13.90;99.90;;;;;;4169083;28;20678;-78
2023/09/15 08:26:41;;;;;;;6.17;4.57;;;13.90;99.90;;;;;;4168053;28;20298;-78
2023/09/15 08:28:43;;;;;;;8.47;4.67;;;14.00;99.90;;;;;;4171473;28;20207;-78
2023/09/15 08:30:49;;;;;;;9.60;5.10;;;14.10;99.90;;;;;;4168186;28;20209;-78
2023/09/15 08:32:51;;;;;;;7.80;4.20;;;14.20;99.90;;;;;;4168426;28;20521;-78
2023/09/15 08:34:54;;;;;;;7.67;4.60;;;14.30;99.90;;;;;;4164895;28;20228;-78
2023/09/15 08:36:56;;;;;;;11.10;4.90;;;14.40;99.90;;;;;;4165760;28;20249;-78
2023/09/15 08:38:58;;;;;;;11.23;4.80;;;14.50;99.90;;;;;;4167170;28;20211;-77
2023/09/15 08:41:06;;;;;;;7.23;3.90;;;14.60;99.90;;;;;;4171683;28;20225;-77
2023/09/15 08:43:07;;;;;;;9.97;4.50;;;14.70;99.90;;;;;;4166436;28;20241;-77
2023/09/15 08:45:10;;;;;;;6.20;4.00;;;14.80;99.90;;;;;;4173259;28;20230;-77
2023/09/15 08:47:11;;;;;;;8.80;4.50;;;14.90;99.90;;;;;;4169826;28;20579;-77
2023/09/15 08:49:16;;;;;;;7.53;4.30;;;15.00;99.90;;;;;;4172110;28;20203;-77
2023/09/15 08:51:21;;;;;;;7.10;4.10;;;14.90;99.90;;;;;;4170106;28;20212;-77
2023/09/15 08:53:24;;;;;;;9.90;4.17;;;15.10;99.90;;;;;;4166615;28;20222;-77
2023/09/15 08:55:26;;;;;;;10.10;4.83;;;15.20;99.90;;;;;;4170261;28;20202;-77
2023/09/15 08:57:30;;;;;;;6.73;4.47;;;15.30;99.90;;;;;;4165845;28;20610;-77
2023/09/15 08:59:33;;;;;;;10.77;4.37;;;15.30;99.90;;;;;;4167686;28;20231;-77
2023/09/15 09:01:36;;;;;;;5.40;3.90;;;15.40;99.90;;;;;;4171972;28;20265;-77
2023/09/15 09:03:38;;;;;;;8.90;4.30;;;15.50;99.90;;;;;;4169471;28;20214;-77
2023/09/15 09:05:48;;;;;;;8.93;4.80;;;15.50;99.90;;;;;;4170990;28;20221;-77
2023/09/15 09:07:52;;;;;;;6.73;4.17;;;15.60;99.90;;;;;;4178371;28;20591;-77
2023/09/15 09:09:55;;;;;;;8.33;4.13;;;15.70;99.90;;;;;;4176761;28;20233;-78
2023/09/15 09:11:59;;;;;;;8.77;4.30;;;15.80;99.90;;;;;;4175407;28;20214;-78
2023/09/15 09:14:00;;;;;;;5.40;4.03;;;15.90;99.90;;;;;;4174717;28;20227;-77
2023/09/15 09:16:05;;;;;;;6.60;4.07;;;16.00;99.90;;;;;;4174194;28;20258;-78
2023/09/15 09:18:15;;;;;;;6.57;4.00;;;16.10;99.90;;;;;;4176418;28;20237;-78
2023/09/15 09:20:27;;;;;;;6.27;3.80;;;16.20;99.90;;;;;;4175727;28;20225;-77
2023/09/15 09:22:29;;;;;;;9.47;3.80;;;16.30;99.90;;;;;;4172378;28;20213;-77
2023/09/15 09:24:32;;;;;;;6.80;3.90;;;16.40;99.90;;;;;;4170081;28;20240;-78
2023/09/15 09:26:34;;;;;;;6.27;3.83;;;16.40;99.90;;;;;;4169438;28;20230;-77
2023/09/15 09:28:37;;;;;;;4.97;3.60;;;16.50;99.90;;;;;;4171803;28;20238;-77
2023/09/15 09:30:39;;;;;;;6.83;3.57;;;16.60;99.90;;;;;;4166346;28;20208;-77
2023/09/15 09:32:41;;;;;;;6.00;3.47;;;16.70;99.90;;;;;;4170602;28;20626;-77
2023/09/15 09:34:43;;;;;;;5.23;3.50;;;16.70;99.90;;;;;;4166535;28;20235;-77
2023/09/15 09:36:49;;;;;;;6.53;3.97;;;16.80;99.90;;;;;;4166637;28;20199;-77
2023/09/15 09:38:52;;;;;;;6.67;3.93;;;16.90;99.90;;;;;;4163835;28;20225;-77
2023/09/15 09:40:56;;;;;;;5.77;3.67;;;17.00;99.90;;;;;;4169162;28;20565;-77
2023/09/15 09:42:58;;;;;;;6.27;3.67;;;17.10;99.90;;;;;;4167308;28;20211;-77
2023/09/15 09:45:00;;;;;;;8.30;3.90;;;17.20;99.90;;;;;;4166111;28;20708;-77
2023/09/15 09:47:03;;;;;;;4.73;3.33;;;17.30;99.90;;;;;;4168877;28;20449;-78
2023/09/15 09:49:05;;;;;;;9.37;4.00;;;17.40;99.90;;;;;;4169772;28;20699;-77
2023/09/15 09:51:07;;;;;;;7.23;3.70;;;17.60;99.90;;;;;;4172283;28;20281;-77
2023/09/15 09:53:10;;;;;;;6.30;3.70;;;17.60;99.90;;;;;;4170559;28;20614;-77
2023/09/15 09:55:11;;;;;;;7.53;3.70;;;17.70;99.90;;;;;;4171249;28;20720;-76
2023/09/15 09:57:15;;;;;;;5.93;3.97;;;17.80;99.90;;;;;;4168470;28;20263;-76
2023/09/15 09:59:17;;;;;;;5.30;3.40;;;17.90;99.90;;;;;;4165900;28;20251;-78
2023/09/15 10:01:20;;;;;;;5.53;3.40;;;18.00;99.90;;;;;;4170872;28;20214;-79
2023/09/15 10:03:22;;;;;;;5.83;3.23;;;18.00;99.90;;;;;;4170405;28;20218;-77
2023/09/15 10:05:24;;;;;;;5.03;3.40;;;18.10;99.90;;;;;;4167987;28;20237;-77
2023/09/15 10:07:27;;;;;;;4.77;3.23;;;18.30;99.90;;;;;;4168486;28;20613;-77
2023/09/15 10:09:30;;;;;;;4.07;2.90;;;18.40;99.90;;;;;;4170241;28;20759;-78
2023/09/15 10:11:34;;;;;;;5.10;3.27;;;18.40;99.90;;;;;;4165922;28;20213;-78
2023/09/15 10:13:38;;;;;;;5.37;3.30;;;18.50;99.90;;;;;;4162653;28;20213;-78
2023/09/15 10:15:41;;;;;;;5.10;2.90;;;18.60;99.90;;;;;;4168875;28;20234;-78
2023/09/15 10:17:43;;;;;;;4.50;3.10;;;18.70;99.90;;;;;;4166146;28;20566;-78
2023/09/15 10:19:46;;;;;;;6.97;3.60;;;18.80;99.90;;;;;;4166040;28;20236;-78
2023/09/15 10:21:48;;;;;;;7.60;3.17;;;18.90;99.90;;;;;;4169044;28;20571;-78
2023/09/15 10:23:59;;;;;;;4.93;3.30;;;19.00;99.90;;;;;;4168116;28;20650;-78
2023/09/15 10:26:03;;;;;;;4.97;3.17;;;19.10;99.90;;;;;;4162223;28;20734;-78
2023/09/15 10:28:07;;;;;;;4.70;2.80;;;19.20;99.90;;;;;;4168425;28;20670;-77
2023/09/15 10:30:11;;;;;;;5.13;2.90;;;19.30;99.90;;;;;;4168045;28;20280;-78
2023/09/15 10:32:17;;;;;;;3.73;2.77;;;19.40;99.90;;;;;;4167710;28;20210;-78
2023/09/15 10:34:19;;;;;;;5.47;3.17;;;19.50;99.90;;;;;;4162217;28;20231;-78
2023/09/15 10:36:21;;;;;;;6.00;3.37;;;19.60;99.90;;;;;;4167691;28;20636;-78
2023/09/15 10:38:28;;;;;;;4.63;3.00;;;19.70;99.90;;;;;;4171421;28;20281;-78